createdAt,value
2019-04-06T00:02:20.914Z,6.63
2019-04-06T00:05:04.331Z,6.13
2019-04-06T00:07:46.328Z,6.57
2019-04-06T00:10:28.667Z,6.80
2019-04-06T00:13:10.588Z,6.37
2019-04-06T00:15:52.407Z,6.50
2019-04-06T00:18:34.655Z,6.07
2019-04-06T00:21:16.634Z,6.43
2019-04-06T00:23:59.207Z,6.00
2019-04-06T00:26:40.923Z,6.53
2019-04-06T00:29:23.238Z,6.70
2019-04-06T00:35:20.097Z,6.20
2019-04-06T00:38:02.206Z,6.30
2019-04-06T00:40:46.835Z,6.60
2019-04-06T00:43:29.152Z,6.90
2019-04-06T00:46:10.995Z,5.93
2019-04-06T00:48:53.390Z,6.27
2019-04-06T00:51:35.543Z,6.07
2019-04-06T00:54:17.306Z,6.10
2019-04-06T00:56:59.235Z,8.17
2019-04-06T00:59:41.011Z,8.70
2019-04-06T01:02:23.302Z,7.77
2019-04-06T01:05:05.210Z,6.57
2019-04-06T01:07:47.252Z,5.90
2019-04-06T01:10:29.092Z,5.20
2019-04-06T01:13:11.382Z,5.10
2019-04-06T01:15:54.710Z,5.10
2019-04-06T01:18:36.908Z,4.77
2019-04-06T01:21:19.004Z,5.07
2019-04-06T01:24:00.800Z,4.43
2019-04-06T01:26:42.807Z,4.30
2019-04-06T01:29:24.901Z,4.30
2019-04-06T01:32:06.632Z,4.40
2019-04-06T01:34:48.664Z,4.37
2019-04-06T01:37:30.591Z,3.97
2019-04-06T01:40:12.555Z,4.47
2019-04-06T01:42:53.011Z,3.90
2019-04-06T01:45:42.422Z,4.67
2019-04-06T01:48:26.373Z,5.40
2019-04-06T01:51:08.412Z,6.90
2019-04-06T01:53:50.384Z,5.50
2019-04-06T01:56:32.647Z,5.20
2019-04-06T01:59:14.707Z,4.80
2019-04-06T02:05:16.200Z,5.20
2019-04-06T02:07:58.145Z,5.10
2019-04-06T02:10:40.016Z,5.33
2019-04-06T02:13:21.741Z,6.40
2019-04-06T02:16:04.364Z,5.20
2019-04-06T02:18:46.475Z,5.90
2019-04-06T02:21:28.732Z,6.20
2019-04-06T02:24:10.407Z,6.50
2019-04-06T02:26:52.355Z,6.37
2019-04-06T02:29:34.582Z,7.47
2019-04-06T02:35:31.912Z,6.80
2019-04-06T02:38:34.170Z,7.33
2019-04-06T02:41:41.305Z,7.50
2019-04-06T02:44:25.054Z,6.90
2019-04-06T02:47:07.269Z,6.30
2019-04-06T02:49:49.187Z,6.63
2019-04-06T02:52:31.348Z,6.27
2019-04-06T02:55:13.560Z,6.33
2019-04-06T02:57:55.704Z,5.77
2019-04-06T03:00:37.963Z,6.27
2019-04-06T03:03:18.833Z,6.67
2019-04-06T03:06:08.284Z,6.70
2019-04-06T03:08:52.120Z,7.03
2019-04-06T03:11:34.318Z,7.33
2019-04-06T03:14:16.363Z,6.87
2019-04-06T03:16:58.297Z,7.27
2019-04-06T03:19:40.385Z,6.80
2019-04-06T03:22:22.204Z,6.70
2019-04-06T03:25:04.529Z,6.40
2019-04-06T03:27:46.377Z,6.33
2019-04-06T03:30:28.272Z,6.47
2019-04-06T03:33:10.055Z,6.07
2019-04-06T03:35:52.094Z,7.13
2019-04-06T03:38:34.904Z,6.73
2019-04-06T03:41:16.731Z,7.17
2019-04-06T03:43:58.775Z,6.20
2019-04-06T03:46:41.231Z,6.97
2019-04-06T03:49:23.406Z,7.10
2019-04-06T03:52:05.776Z,7.20
2019-04-06T03:54:48.361Z,6.57
2019-04-06T03:57:30.384Z,6.30
2019-04-06T04:00:12.717Z,6.77
2019-04-06T04:02:54.880Z,7.17
2019-04-06T04:05:37.287Z,6.40
2019-04-06T04:08:19.427Z,7.00
2019-04-06T04:11:01.791Z,7.10
2019-04-06T04:13:43.793Z,7.27
2019-04-06T04:16:25.779Z,7.63
2019-04-06T04:19:07.952Z,7.73
2019-04-06T04:21:49.825Z,7.20
2019-04-06T04:24:32.151Z,7.40
2019-04-06T04:27:27.775Z,7.90
2019-04-06T04:29:58.048Z,8.40
2019-04-06T04:32:39.967Z,8.67
2019-04-06T04:35:22.272Z,10.33
2019-04-06T04:38:04.142Z,8.80
2019-04-06T04:40:46.044Z,10.17
2019-04-06T04:43:27.992Z,10.03
2019-04-06T04:46:09.758Z,12.83
2019-04-06T04:48:51.673Z,14.23
2019-04-06T04:51:33.969Z,15.87
2019-04-06T04:54:15.714Z,14.30
2019-04-06T04:56:57.490Z,15.00
2019-04-06T04:59:39.771Z,15.70
2019-04-06T05:02:22.635Z,18.80
2019-04-06T05:05:04.673Z,20.40
2019-04-06T05:07:46.615Z,20.70
2019-04-06T05:10:29.202Z,21.50
2019-04-06T05:13:11.307Z,21.37
2019-04-06T05:15:53.660Z,21.07
2019-04-06T05:18:34.201Z,22.50
2019-04-06T05:21:23.619Z,22.00
2019-04-06T05:24:07.504Z,21.13
2019-04-06T05:26:49.564Z,21.90
2019-04-06T05:29:33.118Z,19.97
2019-04-06T05:32:15.635Z,18.57
2019-04-06T05:34:58.393Z,17.13
2019-04-06T05:37:40.553Z,16.83
2019-04-06T05:40:22.602Z,17.73
2019-04-06T05:43:04.431Z,17.50
2019-04-06T05:45:46.299Z,16.23
2019-04-06T05:48:28.155Z,15.90
2019-04-06T05:51:10.275Z,15.53
2019-04-06T05:53:52.287Z,14.97
2019-04-06T05:56:34.471Z,14.50
2019-04-06T05:59:16.523Z,15.00
2019-04-06T06:01:58.596Z,13.60
2019-04-06T06:04:41.051Z,13.83
2019-04-06T06:07:23.516Z,13.67
2019-04-06T06:10:05.215Z,12.83
2019-04-06T06:12:47.137Z,13.43
2019-04-06T06:15:28.897Z,11.97
2019-04-06T06:18:11.492Z,11.50
2019-04-06T06:20:53.359Z,11.43
2019-04-06T06:23:35.191Z,10.40
2019-04-06T06:26:17.087Z,10.37
2019-04-06T06:28:59.175Z,11.10
2019-04-06T06:31:41.139Z,10.70
2019-04-06T06:34:23.196Z,11.07
2019-04-06T06:37:05.076Z,10.23
2019-04-06T06:39:46.988Z,10.03
2019-04-06T06:42:29.118Z,11.33
2019-04-06T06:45:11.348Z,10.37
2019-04-06T06:47:53.318Z,11.23
2019-04-06T06:50:35.941Z,11.43
2019-04-06T06:53:18.187Z,11.57
2019-04-06T06:56:00.452Z,12.23
2019-04-06T06:58:42.438Z,11.83
2019-04-06T07:01:24.565Z,11.70
2019-04-06T07:04:06.365Z,11.87
2019-04-06T07:06:48.403Z,11.83
2019-04-06T07:09:30.283Z,11.13
2019-04-06T07:12:12.714Z,11.90
2019-04-06T07:14:55.224Z,11.63
2019-04-06T07:17:37.352Z,11.77
2019-04-06T07:20:19.314Z,11.03
2019-04-06T07:23:01.047Z,12.23
2019-04-06T07:25:42.779Z,28.63
2019-04-06T07:28:36.383Z,16.00
2019-04-06T07:31:08.395Z,13.03
2019-04-06T07:33:50.606Z,9.83
2019-04-06T07:36:32.349Z,9.30
2019-04-06T07:39:14.584Z,9.53
2019-04-06T07:41:56.815Z,8.57
2019-04-06T07:44:38.375Z,9.30
2019-04-06T07:47:20.768Z,9.13
2019-04-06T07:50:02.825Z,8.30
2019-04-06T07:52:44.655Z,7.77
2019-04-06T07:55:26.691Z,7.70
2019-04-06T07:58:08.791Z,7.20
2019-04-06T08:00:51.012Z,7.10
2019-04-06T08:03:32.959Z,32.40
2019-04-06T08:06:15.543Z,12.33
2019-04-06T08:08:57.391Z,8.07
2019-04-06T08:11:39.561Z,13.20
2019-04-06T08:16:54.346Z,11.13
2019-04-06T08:19:24.846Z,8.20
2019-04-06T08:21:55.310Z,9.73
2019-04-06T08:24:25.872Z,8.00
2019-04-06T08:26:56.325Z,9.47
2019-04-06T08:29:26.872Z,7.83
2019-04-06T08:31:57.327Z,21.63
2019-04-06T08:34:27.971Z,13.03
2019-04-06T08:36:58.398Z,14.53
2019-04-06T08:39:29.082Z,11.43
2019-04-06T08:41:59.425Z,9.03
2019-04-06T08:44:30.090Z,8.23
2019-04-06T08:47:00.496Z,10.07
2019-04-06T08:49:30.907Z,10.50
2019-04-06T08:52:01.491Z,8.50
2019-04-06T08:54:31.932Z,5.60
2019-04-06T08:57:02.393Z,8.10
2019-04-06T08:59:32.755Z,7.80
2019-04-06T09:02:03.224Z,7.63
2019-04-06T09:04:33.681Z,7.87
2019-04-06T09:07:04.059Z,10.40
2019-04-06T09:09:34.399Z,10.00
2019-04-06T09:12:08.592Z,8.07
2019-04-06T09:14:40.614Z,12.23
2019-04-06T09:17:11.234Z,9.10
2019-04-06T09:19:41.638Z,8.13
2019-04-06T09:22:11.999Z,8.80
2019-04-06T09:24:42.653Z,8.40
2019-04-06T09:27:13.007Z,9.27
2019-04-06T09:29:43.502Z,9.90
2019-04-06T09:32:13.881Z,10.40
2019-04-06T09:34:44.300Z,21.00
2019-04-06T09:37:14.707Z,15.33
2019-04-06T09:39:45.127Z,12.47
2019-04-06T09:42:15.877Z,8.20
2019-04-06T09:44:52.490Z,7.43
2019-04-06T09:47:41.955Z,8.30
2019-04-06T09:50:49.529Z,8.13
2019-04-06T09:53:47.952Z,8.13
2019-04-06T09:56:31.544Z,9.10
2019-04-06T09:59:35.213Z,8.00
2019-04-06T10:02:18.242Z,7.37
2019-04-06T10:05:22.881Z,7.70
2019-04-06T10:08:10.310Z,6.67
2019-04-06T10:11:02.564Z,6.87
2019-04-06T10:13:51.458Z,7.30
2019-04-06T10:16:54.917Z,9.03
2019-04-06T10:19:50.271Z,15.47
2019-04-06T10:22:42.461Z,10.27
2019-04-06T10:25:32.123Z,15.13
2019-04-06T10:28:24.446Z,10.93
2019-04-06T10:31:13.934Z,8.67
2019-04-06T10:34:05.627Z,9.80
2019-04-06T10:36:45.103Z,6.77
2019-04-06T10:39:21.063Z,8.03
2019-04-06T10:42:10.879Z,8.77
2019-04-06T10:45:15.437Z,5.33
2019-04-06T10:48:03.469Z,4.37
2019-04-06T10:51:08.326Z,4.30
2019-04-06T10:53:57.821Z,4.17
2019-04-06T10:56:45.827Z,4.80
2019-04-06T10:59:59.202Z,4.83
2019-04-06T11:02:37.678Z,4.40
2019-04-06T11:05:33.546Z,4.10
2019-04-06T11:08:21.213Z,4.27
2019-04-06T11:11:19.769Z,4.37
2019-04-06T11:14:00.151Z,4.73
2019-04-06T11:16:58.055Z,3.90
2019-04-06T11:19:53.877Z,4.00
2019-04-06T11:22:31.092Z,3.70
2019-04-06T11:25:25.546Z,13.03
2019-04-06T11:28:04.251Z,6.37
2019-04-06T11:30:46.603Z,4.80
2019-04-06T11:33:36.048Z,5.20
2019-04-06T11:36:18.143Z,4.80
2019-04-06T11:39:06.271Z,4.50
2019-04-06T11:41:54.567Z,26.80
2019-04-06T11:44:37.470Z,8.70
2019-04-06T11:47:31.295Z,4.47
2019-04-06T11:50:10.968Z,11.67
2019-04-06T11:52:56.791Z,4.40
2019-04-06T11:55:54.769Z,4.93
2019-04-06T11:58:50.146Z,4.47
2019-04-06T12:01:40.719Z,5.00
2019-04-06T12:04:30.346Z,4.40
2019-04-06T12:07:15.900Z,5.10
2019-04-06T12:09:52.870Z,4.40
2019-04-06T12:12:57.290Z,4.57
2019-04-06T12:15:50.666Z,4.47
2019-04-06T12:18:29.795Z,4.10
2019-04-06T12:24:32.306Z,4.40
2019-04-06T12:27:21.698Z,4.10
2019-04-06T12:30:10.954Z,4.60
2019-04-06T12:32:58.358Z,19.47
2019-04-06T12:35:53.703Z,6.53
2019-04-06T12:38:51.939Z,4.30
2019-04-06T12:41:37.159Z,4.70
2019-04-06T12:44:30.563Z,4.63
2019-04-06T12:47:18.890Z,4.77
2019-04-06T12:50:08.406Z,4.80
2019-04-06T12:52:47.450Z,5.20
2019-04-06T12:55:35.771Z,5.33
2019-04-06T12:58:40.731Z,5.10
2019-04-06T13:01:38.978Z,4.87
2019-04-06T13:04:29.163Z,4.90
2019-04-06T13:07:22.056Z,5.37
2019-04-06T13:10:17.666Z,5.60
2019-04-06T13:13:10.039Z,6.83
2019-04-06T13:16:02.751Z,5.70
2019-04-06T13:19:00.973Z,5.93
2019-04-06T13:21:53.412Z,6.13
2019-04-06T13:24:41.582Z,6.37
2019-04-06T13:27:21.466Z,5.83
2019-04-06T13:30:09.621Z,6.33
2019-04-06T13:32:46.048Z,6.23
2019-04-06T13:35:22.013Z,5.93
2019-04-06T13:38:20.688Z,5.50
2019-04-06T13:41:13.449Z,6.07
2019-04-06T13:44:06.063Z,5.40
2019-04-06T13:47:04.472Z,5.20
2019-04-06T13:49:56.004Z,5.80
2019-04-06T13:52:36.548Z,6.37
2019-04-06T13:55:24.225Z,6.43
2019-04-06T13:58:25.574Z,6.20
2019-04-06T14:01:17.624Z,6.20
2019-04-06T14:04:06.625Z,6.47
2019-04-06T14:06:59.419Z,6.00
2019-04-06T14:09:52.056Z,6.17
2019-04-06T14:12:40.604Z,6.43
2019-04-06T14:15:28.548Z,6.70
2019-04-06T14:18:27.166Z,6.47
2019-04-06T14:21:23.085Z,6.70
2019-04-06T14:24:11.554Z,6.50
2019-04-06T14:26:59.985Z,6.50
2019-04-06T14:29:48.358Z,6.47
2019-04-06T14:32:36.451Z,6.23
2019-04-06T14:35:16.161Z,6.27
2019-04-06T14:37:57.144Z,6.67
2019-04-06T14:40:55.839Z,6.50
2019-04-06T14:44:03.261Z,6.43
2019-04-06T14:47:10.967Z,6.40
2019-04-06T14:50:00.283Z,6.77
2019-04-06T14:52:52.247Z,6.40
2019-04-06T14:55:28.807Z,6.80
2019-04-06T14:58:17.068Z,6.93
2019-04-06T15:01:18.907Z,6.70
2019-04-06T15:04:07.261Z,6.57
2019-04-06T15:07:09.678Z,6.77
2019-04-06T15:09:45.478Z,6.70
2019-04-06T15:12:26.174Z,6.20
2019-04-06T15:15:11.608Z,6.23
2019-04-06T15:18:13.307Z,6.67
2019-04-06T15:21:05.512Z,6.83
2019-04-06T15:23:54.814Z,7.10
2019-04-06T15:26:47.391Z,6.80
2019-04-06T15:29:30.033Z,7.77
2019-04-06T15:32:28.431Z,7.87
2019-04-06T15:35:16.512Z,7.17
2019-04-06T15:37:56.220Z,7.60
2019-04-06T15:40:41.375Z,7.43
2019-04-06T15:43:39.813Z,7.77
2019-04-06T15:46:35.662Z,7.80
2019-04-06T15:49:24.422Z,8.23
2019-04-06T15:52:19.887Z,7.90
2019-04-06T15:55:04.466Z,8.00
2019-04-06T15:57:53.863Z,8.03
2019-04-06T16:00:55.468Z,8.10
2019-04-06T16:03:41.442Z,7.87
2019-04-06T16:06:31.179Z,8.40
2019-04-06T16:09:27.115Z,20.67
2019-04-06T16:12:15.595Z,68.27
2019-04-06T16:14:53.220Z,50.33
2019-04-06T16:17:51.658Z,40.03
2019-04-06T16:20:31.448Z,20.20
2019-04-06T16:23:30.192Z,16.50
2019-04-06T16:26:09.205Z,12.30
2019-04-06T16:28:50.100Z,9.63
2019-04-06T16:31:48.929Z,8.90
2019-04-06T16:34:34.240Z,9.77
2019-04-06T16:37:30.197Z,10.00
2019-04-06T16:40:22.641Z,8.17
2019-04-06T16:43:32.144Z,9.20
2019-04-06T16:46:15.300Z,8.10
2019-04-06T16:49:07.690Z,7.33
2019-04-06T16:51:56.922Z,8.40
2019-04-06T16:54:38.393Z,8.70
2019-04-06T16:57:26.647Z,8.70
2019-04-06T17:00:11.434Z,8.77
2019-04-06T17:02:46.854Z,9.30
2019-04-06T17:05:39.520Z,11.03
2019-04-06T17:08:31.886Z,9.13
2019-04-06T17:11:13.129Z,8.53
2019-04-06T17:13:51.639Z,11.10
2019-04-06T17:16:43.858Z,10.00
2019-04-06T17:19:33.255Z,10.07
2019-04-06T17:22:28.642Z,10.00
2019-04-06T17:25:07.787Z,11.23
2019-04-06T17:27:55.219Z,12.37
2019-04-06T17:30:43.205Z,12.90
2019-04-06T17:33:48.367Z,11.10
2019-04-06T17:36:44.165Z,11.53
2019-04-06T17:39:29.825Z,13.27
2019-04-06T17:42:25.730Z,12.20
2019-04-06T17:45:21.904Z,11.33
2019-04-06T17:48:09.482Z,12.20
2019-04-06T17:50:51.028Z,11.33
2019-04-06T17:53:39.752Z,10.60
2019-04-06T17:56:19.359Z,12.30
2019-04-06T17:59:12.098Z,12.10
2019-04-06T18:02:00.502Z,12.57
2019-04-06T18:04:50.071Z,13.83
2019-04-06T18:07:37.985Z,13.63
2019-04-06T18:10:33.387Z,31.40
2019-04-06T18:13:25.435Z,30.57
2019-04-06T18:15:55.831Z,27.40
2019-04-06T18:18:26.310Z,23.70
2019-04-06T18:20:56.666Z,24.97
2019-04-06T18:23:27.019Z,23.77
2019-04-06T18:25:57.411Z,27.17
2019-04-06T18:28:27.815Z,75.30
2019-04-06T18:31:04.850Z,58.10
2019-04-06T18:33:35.122Z,30.47
2019-04-06T18:36:05.838Z,17.97
2019-04-06T18:38:45.343Z,15.27
2019-04-06T18:41:15.866Z,16.67
2019-04-06T18:43:46.422Z,17.00
2019-04-06T18:46:16.920Z,22.73
2019-04-06T18:48:47.446Z,24.70
2019-04-06T18:51:17.980Z,22.00
2019-04-06T18:53:48.414Z,19.20
2019-04-06T18:56:18.829Z,22.00
2019-04-06T18:58:49.215Z,43.57
2019-04-06T19:01:20.207Z,48.20
2019-04-06T19:03:50.823Z,52.80
2019-04-06T19:06:21.567Z,48.47
2019-04-06T19:08:52.614Z,31.63
2019-04-06T19:11:23.195Z,23.40
2019-04-06T19:13:53.543Z,18.07
2019-04-06T19:16:23.822Z,17.17
2019-04-06T19:18:54.615Z,17.10
2019-04-06T19:21:25.173Z,17.83
2019-04-06T19:23:55.459Z,20.80
2019-04-06T19:26:25.755Z,21.60
2019-04-06T19:28:56.230Z,19.27
2019-04-06T19:31:26.634Z,38.80
2019-04-06T19:33:57.107Z,19.70
2019-04-06T19:36:27.720Z,15.97
2019-04-06T19:38:58.425Z,17.57
2019-04-06T19:41:28.878Z,16.37
2019-04-06T19:43:59.393Z,18.50
2019-04-06T19:46:29.830Z,19.20
2019-04-06T19:49:01.176Z,18.03
2019-04-06T19:51:32.010Z,19.43
2019-04-06T19:54:05.755Z,16.57
2019-04-06T19:56:36.460Z,14.93
2019-04-06T19:59:06.871Z,15.57
2019-04-06T20:01:37.560Z,14.10
2019-04-06T20:04:08.087Z,11.83
2019-04-06T20:06:39.243Z,12.80
2019-04-06T20:09:09.770Z,13.00
2019-04-06T20:11:40.437Z,13.13
2019-04-06T20:14:10.871Z,12.80
2019-04-06T20:16:41.385Z,12.63
2019-04-06T20:19:12.548Z,13.30
2019-04-06T20:21:42.942Z,12.47
2019-04-06T20:24:14.319Z,12.60
2019-04-06T20:26:45.243Z,13.63
2019-04-06T20:29:15.810Z,13.87
2019-04-06T20:31:46.352Z,15.60
2019-04-06T20:34:16.635Z,15.83
2019-04-06T20:36:47.283Z,14.63
2019-04-06T20:39:17.646Z,16.53
2019-04-06T20:41:48.165Z,17.40
2019-04-06T20:44:18.542Z,19.30
2019-04-06T20:46:50.611Z,21.03
2019-04-06T20:49:21.371Z,19.83
2019-04-06T20:51:52.319Z,35.03
2019-04-06T20:54:22.977Z,81.40
2019-04-06T20:56:58.191Z,37.30
2019-04-06T20:59:27.591Z,21.13
2019-04-06T21:01:57.958Z,18.97
2019-04-06T21:04:28.373Z,20.83
2019-04-06T21:06:59.920Z,21.47
2019-04-06T21:09:30.590Z,20.27
2019-04-06T21:12:01.342Z,22.47
2019-04-06T21:14:31.809Z,19.10
2019-04-06T21:17:02.543Z,18.27
2019-04-06T21:19:33.091Z,19.53
2019-04-06T21:22:03.496Z,20.40
2019-04-06T21:24:33.936Z,19.40
2019-04-06T21:27:04.376Z,20.07
2019-04-06T21:29:34.752Z,18.63
2019-04-06T21:32:05.331Z,21.30
2019-04-06T21:34:35.815Z,19.27
2019-04-06T21:37:06.296Z,19.43
2019-04-06T21:39:37.286Z,20.73
2019-04-06T21:42:07.754Z,22.23
2019-04-06T21:44:38.835Z,18.30
2019-04-06T21:47:09.491Z,17.17
2019-04-06T21:49:39.951Z,51.57
2019-04-06T21:52:10.351Z,47.77
2019-04-06T21:54:40.977Z,20.67
2019-04-06T21:57:11.562Z,18.50
2019-04-06T21:59:42.487Z,17.73
2019-04-06T22:02:13.718Z,16.27
2019-04-06T22:04:44.243Z,15.73
2019-04-06T22:07:14.639Z,15.97
2019-04-06T22:09:51.618Z,14.77
2019-04-06T22:12:22.661Z,15.40
2019-04-06T22:14:53.195Z,16.57
2019-04-06T22:17:23.575Z,15.90
2019-04-06T22:19:53.991Z,16.80
2019-04-06T22:22:24.825Z,17.30
2019-04-06T22:24:55.412Z,18.33
2019-04-06T22:27:25.799Z,18.73
2019-04-06T22:29:56.516Z,18.53
2019-04-06T22:32:27.066Z,17.87
2019-04-06T22:34:57.936Z,17.73
2019-04-06T22:37:29.101Z,18.53
2019-04-06T22:39:59.623Z,18.83
2019-04-06T22:42:30.465Z,19.50
2019-04-06T22:45:01.375Z,18.23
2019-04-06T22:47:31.905Z,17.60
2019-04-06T22:50:02.736Z,17.70
2019-04-06T22:52:33.135Z,18.67
2019-04-06T22:55:03.631Z,18.37
2019-04-06T22:57:34.571Z,17.90
2019-04-06T23:00:05.920Z,18.57
2019-04-06T23:02:48.946Z,19.03
2019-04-06T23:05:27.929Z,16.60
2019-04-06T23:07:58.742Z,17.33
2019-04-06T23:10:30.480Z,18.63
2019-04-06T23:13:00.959Z,17.47
2019-04-06T23:15:31.515Z,17.03
2019-04-06T23:18:02.139Z,16.43
2019-04-06T23:20:32.694Z,17.67
2019-04-06T23:23:03.610Z,17.77
2019-04-06T23:25:35.916Z,52.47
2019-04-06T23:28:06.565Z,72.30
2019-04-06T23:30:37.483Z,58.30
2019-04-06T23:33:08.240Z,24.40
2019-04-06T23:35:39.619Z,17.60
2019-04-06T23:38:10.143Z,17.10
2019-04-06T23:40:40.495Z,19.17
2019-04-06T23:43:10.866Z,19.30
2019-04-06T23:45:41.352Z,18.03
2019-04-06T23:48:12.042Z,17.13
2019-04-06T23:50:42.378Z,16.87
2019-04-06T23:53:12.665Z,18.37
2019-04-06T23:55:43.401Z,16.00
2019-04-06T23:58:14.051Z,17.43
